Decoded METAR Reports


Created by using MetarWeather

Station Name Location Elevation Time Temperature Dew Point RH Heat Index Wind Visibility Pressure Sky Condition Weather Remarks METAR
Alexandroupolis  40.85N 25.92E  3m  30/06/2015 18:20:00  27.0C  14.0C  45%  27.1C  9 km/h, WSW (250 degrees)  > 10000m  1014.9 mb  Few clouds at 760m
 
      LGAL 301520Z 25005KT 9999 FEW025 27/14 Q1015 
Andravida (Civ/A  37.92N 21.27E  12m  30/06/2015 18:20:00  28.0C  11.0C  35%  27.3C  9 km/h, WNW (290 degrees)  > 10000m  1014.9 mb  Few clouds at 610m
Scattered clouds at 2400m
 
      LGAD 301520Z 29005KT 9999 FEW020 SCT080 28/11 Q1015 
Araxos (Civ/Afb)  38.17N 21.42E  15m  30/06/2015 18:20:00  27.0C  17.0C  54%  27.7C  6 km/h, Variable  > 10000m  1014.9 mb  Few cumulus clouds at 760m
 
      LGRX 301520Z VRB03KT 9999 FEW025TCU 27/17 Q1015 
Athens/Elef-Ven  37.93N 23.95E  94m  30/06/2015 18:20:00  25.0C  15.0C  54%  25.9C  19 km/h, NNE (30 degrees)  > 10000m  1015.9 mb  Few clouds at 760m
Scattered clouds at 2100m
 
      LGAV 301520Z 03010KT 9999 FEW025 SCT070 25/15 Q1016 NOSIG 
Chios Airport  38.32N 26.12E  4m  30/06/2015 17:50:00  27.0C  16.0C  51%  27.5C  11 km/h, NNE (20 degrees)  > 10000m  1012.9 mb           LGHI 301450Z 02006KT 310V070 CAVOK 27/16 Q1013 
Elefsis (Hel-Afb  38.07N 23.55E  31m  30/06/2015 18:20:00  27.0C  15.0C  48%  27.3C  15 km/h, S (180 degrees)  > 10000m  1014.9 mb  Scattered clouds at 760m
 
      LGEL 301520Z 18008KT 9999 SCT025 27/15 Q1015 
Ioannis Kapodist  39.60N 19.92E  2m  30/06/2015 18:20:00  29.0C  19.0C  55%  30.3C  11 km/h, NE (50 degrees)  > 10000m  1013.9 mb  Few clouds at 760m
 
      LGKR 301520Z 05006KT 9999 FEW025 29/19 Q1014 NOSIG 
Iraklion (Civ/Af  35.32N 25.17E  39m  30/06/2015 18:20:00  26.0C  19.0C  65%  27.1C  6 km/h, Variable  > 10000m  1014.9 mb  Few clouds at 610m
 
      LGIR 301520Z VRB03KT 9999 FEW020 26/19 Q1015 NOSIG 
Kalamata (Hel-Af  37.07N 22.02E  8m  30/06/2015 18:20:00  22.0C  20.0C  88%  20.7C  7 km/h, ENE (60 degrees)  > 10000m  1015.9 mb  Few cumulus clouds at 760m
Scattered clouds at 2400m
 
      LGKL 301520Z 06004KT 9999 FEW025TCU SCT080 22/20 Q1016 RETS 
Karpathos  35.42N 27.15E  20m  30/06/2015 18:20:00  26.0C  18.0C  61%  27.0C  33 km/h, NW (310 degrees)  > 10000m  1013.9 mb  Few clouds at 550m
 
      LGKP 301520Z 31018KT 9999 FEW018 26/18 Q1014 
Kavala/Chrisoupo  40.92N 24.62E  5m  30/06/2015 18:20:00  25.0C  14.0C  51%  25.9C  9 km/h, SW (230 degrees)  > 10000m  1015.9 mb  Scattered cumulus clouds at 760m
Scattered clouds at 2400m
 
      LGKV 301520Z 23005KT 9999 SCT025TCU SCT080 25/14 Q1016 
Kefallinia  38.12N 20.50E  18m  30/06/2015 17:50:00  26.0C  19.0C  65%  27.1C  20 km/h, NW (320 degrees)  > 10000m  1015.9 mb  Few clouds at 550m
Few clouds
 
      LGKF 301450Z 32011KT 9999 FEW018 FEW 070 26/19 Q1016 
Kos Airport  36.80N 27.08E  130m  30/06/2015 18:20:00  26.0C  14.0C  48%  26.5C  17 km/h, W (280 degrees)  > 10000m  1013.9 mb  Few clouds at 610m
 
      LGKO 301520Z 28009KT 9999 FEW020 26/14 Q1014 
Kozani (Civ/Army  40.28N 21.85E  630m  30/06/2015 17:50:00  16.0C  14.0C  88%  N/A  9 km/h, NNE (20 degrees)  > 10000m  1020.0 mb  Broken clouds at 760m
Overcast at 2100m
 
Rain
 
   LGKZ 301450Z 02005KT 9999 RA BKN025 OVC070 16/14 Q1020 
Limnos Island Ar  39.92N 25.23E  5m  30/06/2015 18:20:00  26.0C  13.0C  45%  26.4C  17 km/h, N (350 degrees)  > 10000m  1014.9 mb  Few clouds at 760m
Scattered clouds at 2400m
 
      LGLM 301520Z 35009KT 9999 FEW025 SCT080 26/13 Q1015 
Mikonos Island  37.43N 25.35E  120m  30/06/2015 18:20:00  26.0C  18.0C  61%  27.0C  19 km/h, N (350 degrees)  > 10000m  1014.9 mb           LGMK 301520Z 35010KT CAVOK 26/18 Q1015 
Mitilini  39.05N 26.60E  17m  30/06/2015 18:20:00  31.0C  13.0C  33%  30.1C    > 10000m  1013.9 mb  Few clouds at 760m
 
      LGMT 301520Z /////KT 9999 FEW025 31/13 Q1014 
Paros  37.00N 25.07E  36m  30/06/2015 17:50:00  27.0C  14.0C  45%  27.1C  7 km/h, ESE (120 degrees)  > 10000m  1014.9 mb           LGPA 301450Z 12004KT CAVOK 27/14 Q1015 
Preveza/Aktion  38.62N 20.77E  4m  30/06/2015 18:20:00  26.0C  15.0C  51%  26.6C  Calm  > 10000m  1015.9 mb  Few clouds at 610m
 
      LGPZ 301520Z 00000KT 9999 FEW020 26/15 Q1016 
Rhodes/Diagoras  36.40N 28.08E  5m  30/06/2015 18:20:00  27.0C  16.0C  51%  27.5C  26 km/h, WSW (240 degrees)  > 10000m  1012.9 mb  Few clouds at 610m
 
      LGRP 301520Z 24014KT 9999 FEW020 27/16 Q1013 NOSIG 
Samos Airport  37.68N 26.92E  6m  30/06/2015 18:20:00  28.0C  15.0C  45%  28.0C  11 km/h, S (170 degrees)  > 10000m  1013.9 mb  Few clouds at 760m
 
      LGSM 301520Z 17006KT 9999 FEW025 28/15 Q1014 
Santorini Island  36.40N 25.48E  40m  30/06/2015 18:20:00  26.0C  18.0C  61%  27.0C  9 km/h, SE (130 degrees)  > 10000m  1014.9 mb           LGSR 301520Z 13005KT CAVOK 26/18 Q1015 
Skiathos Island  39.18N 23.50E  15m  30/06/2015 17:50:00  23.0C  18.0C  73%  23.8C  7 km/h, WNW (300 degrees)  > 10000m  1016.9 mb  Scattered cumulus clouds at 550m
Scattered clouds at 760m
Overcast at 2400m
 
      LGSK 301450Z 30004KT 9999 SCT018TCU SCT025 OVC080 23/18 Q1017 
Souda/Khania (Af  35.47N 24.12E  150m  30/06/2015 18:20:00  27.0C  17.0C  54%  27.7C  7 km/h, W (270 degrees)  > 10000m  1014.9 mb  Few clouds at 760m
 
      LGSA 301520Z 27004KT 9999 FEW025 27/17 Q1015 
Syros  37.42N 24.95E  72m  30/06/2015 18:20:00  26.0C  12.0C  42%  26.3C  11 km/h, NNE (30 degrees)    1014.9 mb           LGSO 301520Z AUTO 03006KT 290V070 //// // ////// 26/12 Q1015 RE// 
Thessaloniki/Mik  40.52N 22.97E  7m  30/06/2015 18:20:00  18.0C  17.0C  94%  N/A  6 km/h, Variable  5000m  1017.9 mb  Scattered Cumulonimbus clouds at 460m
Scattered cumulus clouds at 550m
Broken clouds at 910m
 
Heavy Rain with Thunderstorm
 
   LGTS 301520Z VRB03KT 5000 +TSRA SCT015CB SCT018TCU BKN030 18/17 Q1018 NOSIG 
Zakinthos Airpor  37.75N 20.87E  3m  30/06/2015 18:20:00  28.0C  18.0C  55%  28.9C  15 km/h, NE (40 degrees)  > 10000m  1014.9 mb  Few clouds at 610m
 
      LGZA 301520Z 04008KT 9999 FEW020 28/18 Q1015